sensor_id;sensor_type;location;lat;lon;timestamp;P1;durP1;ratioP1;P2;durP2;ratioP2
29358;SDS011;16347;53.232;6.556;2024-01-06T00:02:09;13.00;;;8.38;;
29358;SDS011;16347;53.232;6.556;2024-01-06T00:04:37;11.98;;;7.78;;
29358;SDS011;16347;53.232;6.556;2024-01-06T00:07:05;13.40;;;8.32;;
29358;SDS011;16347;53.232;6.556;2024-01-06T00:09:32;11.18;;;8.02;;
29358;SDS011;16347;53.232;6.556;2024-01-06T00:12:00;11.38;;;7.85;;
29358;SDS011;16347;53.232;6.556;2024-01-06T00:14:28;10.60;;;7.32;;
29358;SDS011;16347;53.232;6.556;2024-01-06T00:16:57;15.30;;;7.40;;
29358;SDS011;16347;53.232;6.556;2024-01-06T00:19:26;11.20;;;7.53;;
29358;SDS011;16347;53.232;6.556;2024-01-06T00:21:54;11.77;;;7.95;;
29358;SDS011;16347;53.232;6.556;2024-01-06T00:24:22;9.80;;;6.93;;
29358;SDS011;16347;53.232;6.556;2024-01-06T00:26:49;12.00;;;7.55;;
29358;SDS011;16347;53.232;6.556;2024-01-06T00:29:17;11.23;;;7.50;;
29358;SDS011;16347;53.232;6.556;2024-01-06T00:31:45;11.63;;;7.18;;
29358;SDS011;16347;53.232;6.556;2024-01-06T00:34:14;13.40;;;7.25;;
29358;SDS011;16347;53.232;6.556;2024-01-06T00:36:42;10.30;;;7.63;;
29358;SDS011;16347;53.232;6.556;2024-01-06T00:39:10;13.30;;;7.50;;
29358;SDS011;16347;53.232;6.556;2024-01-06T00:41:38;10.80;;;7.63;;
29358;SDS011;16347;53.232;6.556;2024-01-06T00:44:06;13.55;;;8.30;;
29358;SDS011;16347;53.232;6.556;2024-01-06T00:46:34;13.88;;;8.00;;
29358;SDS011;16347;53.232;6.556;2024-01-06T00:49:01;13.70;;;7.45;;
29358;SDS011;16347;53.232;6.556;2024-01-06T00:51:31;12.32;;;7.18;;
29358;SDS011;16347;53.232;6.556;2024-01-06T00:54:02;10.93;;;7.53;;
29358;SDS011;16347;53.232;6.556;2024-01-06T00:56:30;10.30;;;7.43;;
29358;SDS011;16347;53.232;6.556;2024-01-06T00:58:58;12.48;;;7.65;;
29358;SDS011;16347;53.232;6.556;2024-01-06T01:01:25;12.40;;;8.20;;
29358;SDS011;16347;53.232;6.556;2024-01-06T01:03:53;16.02;;;9.00;;
29358;SDS011;16347;53.232;6.556;2024-01-06T01:06:21;11.23;;;8.00;;
29358;SDS011;16347;53.232;6.556;2024-01-06T01:08:50;14.32;;;7.88;;
29358;SDS011;16347;53.232;6.556;2024-01-06T01:11:18;12.15;;;7.35;;
29358;SDS011;16347;53.232;6.556;2024-01-06T01:13:47;12.88;;;7.75;;
29358;SDS011;16347;53.232;6.556;2024-01-06T01:16:14;11.95;;;7.47;;
29358;SDS011;16347;53.232;6.556;2024-01-06T01:18:42;11.93;;;8.00;;
29358;SDS011;16347;53.232;6.556;2024-01-06T01:21:11;12.95;;;7.78;;
29358;SDS011;16347;53.232;6.556;2024-01-06T01:23:38;11.43;;;7.10;;
29358;SDS011;16347;53.232;6.556;2024-01-06T01:26:08;11.48;;;6.78;;
29358;SDS011;16347;53.232;6.556;2024-01-06T01:28:35;12.80;;;7.75;;
29358;SDS011;16347;53.232;6.556;2024-01-06T01:31:03;12.82;;;7.53;;
29358;SDS011;16347;53.232;6.556;2024-01-06T01:33:31;14.07;;;7.55;;
29358;SDS011;16347;53.232;6.556;2024-01-06T01:35:59;13.95;;;7.53;;
29358;SDS011;16347;53.232;6.556;2024-01-06T01:38:28;14.23;;;7.63;;
29358;SDS011;16347;53.232;6.556;2024-01-06T01:40:56;12.57;;;7.40;;
29358;SDS011;16347;53.232;6.556;2024-01-06T01:43:27;11.82;;;7.00;;
29358;SDS011;16347;53.232;6.556;2024-01-06T01:45:55;12.13;;;6.88;;
29358;SDS011;16347;53.232;6.556;2024-01-06T01:48:24;12.32;;;6.70;;
29358;SDS011;16347;53.232;6.556;2024-01-06T01:50:53;8.60;;;5.78;;
29358;SDS011;16347;53.232;6.556;2024-01-06T01:53:22;11.52;;;6.07;;
29358;SDS011;16347;53.232;6.556;2024-01-06T01:55:50;11.10;;;6.13;;
29358;SDS011;16347;53.232;6.556;2024-01-06T01:58:18;12.52;;;6.75;;
29358;SDS011;16347;53.232;6.556;2024-01-06T02:00:48;15.80;;;6.20;;
29358;SDS011;16347;53.232;6.556;2024-01-06T02:03:16;12.45;;;7.55;;
29358;SDS011;16347;53.232;6.556;2024-01-06T02:05:44;11.98;;;7.38;;
29358;SDS011;16347;53.232;6.556;2024-01-06T02:08:12;12.77;;;7.20;;
29358;SDS011;16347;53.232;6.556;2024-01-06T02:10:39;11.80;;;6.95;;
29358;SDS011;16347;53.232;6.556;2024-01-06T02:13:08;11.23;;;7.20;;
29358;SDS011;16347;53.232;6.556;2024-01-06T02:15:37;10.77;;;6.45;;
29358;SDS011;16347;53.232;6.556;2024-01-06T02:18:06;11.93;;;7.07;;
29358;SDS011;16347;53.232;6.556;2024-01-06T02:20:34;12.80;;;7.70;;
29358;SDS011;16347;53.232;6.556;2024-01-06T02:23:03;11.52;;;6.82;;
29358;SDS011;16347;53.232;6.556;2024-01-06T02:25:31;13.05;;;7.18;;
29358;SDS011;16347;53.232;6.556;2024-01-06T02:27:59;15.45;;;7.70;;
29358;SDS011;16347;53.232;6.556;2024-01-06T02:30:27;11.30;;;7.07;;
29358;SDS011;16347;53.232;6.556;2024-01-06T02:32:55;12.00;;;7.07;;
29358;SDS011;16347;53.232;6.556;2024-01-06T02:35:23;13.68;;;7.72;;
29358;SDS011;16347;53.232;6.556;2024-01-06T02:37:51;12.05;;;7.13;;
29358;SDS011;16347;53.232;6.556;2024-01-06T02:40:20;13.50;;;8.15;;
29358;SDS011;16347;53.232;6.556;2024-01-06T02:42:48;13.82;;;7.60;;
29358;SDS011;16347;53.232;6.556;2024-01-06T02:45:16;12.85;;;7.35;;
29358;SDS011;16347;53.232;6.556;2024-01-06T02:47:43;9.93;;;6.32;;
29358;SDS011;16347;53.232;6.556;2024-01-06T02:50:11;11.40;;;6.95;;
29358;SDS011;16347;53.232;6.556;2024-01-06T02:52:39;11.20;;;6.35;;
29358;SDS011;16347;53.232;6.556;2024-01-06T02:55:07;11.32;;;6.93;;
29358;SDS011;16347;53.232;6.556;2024-01-06T02:57:37;11.65;;;6.22;;
29358;SDS011;16347;53.232;6.556;2024-01-06T03:00:05;9.50;;;6.15;;
29358;SDS011;16347;53.232;6.556;2024-01-06T03:02:34;13.57;;;7.30;;
29358;SDS011;16347;53.232;6.556;2024-01-06T03:05:04;13.40;;;6.90;;
29358;SDS011;16347;53.232;6.556;2024-01-06T03:07:32;9.32;;;6.28;;
29358;SDS011;16347;53.232;6.556;2024-01-06T03:10:00;9.82;;;6.75;;
29358;SDS011;16347;53.232;6.556;2024-01-06T03:12:29;13.05;;;7.13;;
29358;SDS011;16347;53.232;6.556;2024-01-06T03:14:58;13.25;;;8.10;;
29358;SDS011;16347;53.232;6.556;2024-01-06T03:17:26;14.30;;;7.47;;
29358;SDS011;16347;53.232;6.556;2024-01-06T03:19:55;14.23;;;7.78;;
29358;SDS011;16347;53.232;6.556;2024-01-06T03:22:23;13.93;;;8.52;;
29358;SDS011;16347;53.232;6.556;2024-01-06T03:24:51;13.35;;;7.95;;
29358;SDS011;16347;53.232;6.556;2024-01-06T03:27:18;13.23;;;8.60;;
29358;SDS011;16347;53.232;6.556;2024-01-06T03:29:46;16.38;;;9.25;;
29358;SDS011;16347;53.232;6.556;2024-01-06T03:32:15;13.23;;;8.77;;
29358;SDS011;16347;53.232;6.556;2024-01-06T03:34:43;15.93;;;9.40;;
29358;SDS011;16347;53.232;6.556;2024-01-06T03:37:11;15.57;;;8.90;;
29358;SDS011;16347;53.232;6.556;2024-01-06T03:39:39;17.60;;;8.90;;
29358;SDS011;16347;53.232;6.556;2024-01-06T03:42:07;14.30;;;9.02;;
29358;SDS011;16347;53.232;6.556;2024-01-06T03:44:35;15.45;;;9.10;;
29358;SDS011;16347;53.232;6.556;2024-01-06T03:47:03;17.52;;;9.23;;
29358;SDS011;16347;53.232;6.556;2024-01-06T03:49:32;16.05;;;9.45;;
29358;SDS011;16347;53.232;6.556;2024-01-06T03:52:00;14.90;;;8.18;;
29358;SDS011;16347;53.232;6.556;2024-01-06T03:54:29;15.30;;;8.68;;
29358;SDS011;16347;53.232;6.556;2024-01-06T03:56:57;12.48;;;8.55;;
29358;SDS011;16347;53.232;6.556;2024-01-06T03:59:25;12.73;;;7.72;;
29358;SDS011;16347;53.232;6.556;2024-01-06T04:01:51;15.95;;;8.52;;
29358;SDS011;16347;53.232;6.556;2024-01-06T04:04:19;12.98;;;8.30;;
29358;SDS011;16347;53.232;6.556;2024-01-06T04:06:49;16.15;;;8.98;;
29358;SDS011;16347;53.232;6.556;2024-01-06T04:09:16;14.82;;;8.38;;
29358;SDS011;16347;53.232;6.556;2024-01-06T04:11:44;13.63;;;8.02;;
29358;SDS011;16347;53.232;6.556;2024-01-06T04:14:12;15.70;;;8.38;;
29358;SDS011;16347;53.232;6.556;2024-01-06T04:16:40;13.18;;;8.68;;
29358;SDS011;16347;53.232;6.556;2024-01-06T04:19:08;16.38;;;9.05;;
29358;SDS011;16347;53.232;6.556;2024-01-06T04:21:38;15.07;;;8.25;;
29358;SDS011;16347;53.232;6.556;2024-01-06T04:24:07;15.45;;;8.73;;
29358;SDS011;16347;53.232;6.556;2024-01-06T04:26:35;14.50;;;8.23;;
29358;SDS011;16347;53.232;6.556;2024-01-06T04:29:04;18.48;;;8.57;;
29358;SDS011;16347;53.232;6.556;2024-01-06T04:31:31;16.85;;;8.40;;
29358;SDS011;16347;53.232;6.556;2024-01-06T04:34:00;18.10;;;8.93;;
29358;SDS011;16347;53.232;6.556;2024-01-06T04:36:28;14.80;;;8.93;;
29358;SDS011;16347;53.232;6.556;2024-01-06T04:38:55;13.85;;;7.97;;
29358;SDS011;16347;53.232;6.556;2024-01-06T04:41:25;13.60;;;7.78;;
29358;SDS011;16347;53.232;6.556;2024-01-06T04:43:52;21.27;;;8.63;;
29358;SDS011;16347;53.232;6.556;2024-01-06T04:46:20;12.95;;;8.00;;
29358;SDS011;16347;53.232;6.556;2024-01-06T04:48:48;10.55;;;7.13;;
29358;SDS011;16347;53.232;6.556;2024-01-06T04:51:16;14.20;;;7.93;;
29358;SDS011;16347;53.232;6.556;2024-01-06T04:53:44;12.07;;;8.10;;
29358;SDS011;16347;53.232;6.556;2024-01-06T04:56:12;16.10;;;8.10;;
29358;SDS011;16347;53.232;6.556;2024-01-06T04:58:41;14.07;;;7.75;;
29358;SDS011;16347;53.232;6.556;2024-01-06T05:01:09;14.07;;;7.43;;
29358;SDS011;16347;53.232;6.556;2024-01-06T05:03:37;17.60;;;8.00;;
29358;SDS011;16347;53.232;6.556;2024-01-06T05:06:05;11.77;;;7.03;;
29358;SDS011;16347;53.232;6.556;2024-01-06T05:08:33;13.60;;;7.20;;
29358;SDS011;16347;53.232;6.556;2024-01-06T05:11:05;20.05;;;8.55;;
29358;SDS011;16347;53.232;6.556;2024-01-06T05:13:32;13.50;;;7.85;;
29358;SDS011;16347;53.232;6.556;2024-01-06T05:16:02;14.00;;;7.60;;
29358;SDS011;16347;53.232;6.556;2024-01-06T05:18:30;12.27;;;7.07;;
29358;SDS011;16347;53.232;6.556;2024-01-06T05:20:58;11.40;;;7.18;;
29358;SDS011;16347;53.232;6.556;2024-01-06T05:23:26;12.93;;;8.00;;
29358;SDS011;16347;53.232;6.556;2024-01-06T05:25:53;12.18;;;7.75;;
29358;SDS011;16347;53.232;6.556;2024-01-06T05:28:22;14.55;;;7.38;;
29358;SDS011;16347;53.232;6.556;2024-01-06T05:30:49;14.88;;;7.53;;
29358;SDS011;16347;53.232;6.556;2024-01-06T05:33:19;13.68;;;7.88;;
29358;SDS011;16347;53.232;6.556;2024-01-06T05:35:47;15.55;;;7.10;;
29358;SDS011;16347;53.232;6.556;2024-01-06T05:38:14;12.15;;;7.30;;
29358;SDS011;16347;53.232;6.556;2024-01-06T05:40:43;11.88;;;7.40;;
29358;SDS011;16347;53.232;6.556;2024-01-06T05:43:11;14.27;;;7.97;;
29358;SDS011;16347;53.232;6.556;2024-01-06T05:45:39;15.90;;;7.68;;
29358;SDS011;16347;53.232;6.556;2024-01-06T05:48:08;15.32;;;7.57;;
29358;SDS011;16347;53.232;6.556;2024-01-06T05:50:38;11.65;;;7.78;;
29358;SDS011;16347;53.232;6.556;2024-01-06T05:53:07;13.52;;;7.13;;
29358;SDS011;16347;53.232;6.556;2024-01-06T05:55:35;9.50;;;6.72;;
29358;SDS011;16347;53.232;6.556;2024-01-06T05:58:03;13.40;;;7.30;;
29358;SDS011;16347;53.232;6.556;2024-01-06T06:00:31;11.80;;;7.53;;
29358;SDS011;16347;53.232;6.556;2024-01-06T06:02:59;11.07;;;7.18;;
29358;SDS011;16347;53.232;6.556;2024-01-06T06:05:26;13.68;;;7.88;;
29358;SDS011;16347;53.232;6.556;2024-01-06T06:07:56;12.43;;;6.68;;
29358;SDS011;16347;53.232;6.556;2024-01-06T06:10:23;12.93;;;6.82;;
29358;SDS011;16347;53.232;6.556;2024-01-06T06:12:56;11.50;;;6.63;;
29358;SDS011;16347;53.232;6.556;2024-01-06T06:15:24;10.98;;;7.35;;
29358;SDS011;16347;53.232;6.556;2024-01-06T06:17:52;13.75;;;7.70;;
29358;SDS011;16347;53.232;6.556;2024-01-06T06:20:20;11.45;;;7.35;;
29358;SDS011;16347;53.232;6.556;2024-01-06T06:22:48;12.65;;;8.27;;
29358;SDS011;16347;53.232;6.556;2024-01-06T06:25:17;14.98;;;8.38;;
29358;SDS011;16347;53.232;6.556;2024-01-06T06:27:45;11.73;;;7.15;;
29358;SDS011;16347;53.232;6.556;2024-01-06T06:30:13;12.82;;;7.95;;
29358;SDS011;16347;53.232;6.556;2024-01-06T06:32:42;12.82;;;8.30;;
29358;SDS011;16347;53.232;6.556;2024-01-06T06:35:10;11.77;;;6.95;;
29358;SDS011;16347;53.232;6.556;2024-01-06T06:37:37;14.65;;;8.82;;
29358;SDS011;16347;53.232;6.556;2024-01-06T06:40:06;14.23;;;8.70;;
29358;SDS011;16347;53.232;6.556;2024-01-06T06:42:36;13.48;;;8.50;;
29358;SDS011;16347;53.232;6.556;2024-01-06T06:45:04;15.27;;;9.70;;
29358;SDS011;16347;53.232;6.556;2024-01-06T06:47:32;15.45;;;9.23;;
29358;SDS011;16347;53.232;6.556;2024-01-06T06:50:00;15.57;;;8.70;;
29358;SDS011;16347;53.232;6.556;2024-01-06T06:52:28;18.33;;;9.55;;
29358;SDS011;16347;53.232;6.556;2024-01-06T06:54:56;14.95;;;10.60;;
29358;SDS011;16347;53.232;6.556;2024-01-06T06:57:24;14.35;;;9.40;;
29358;SDS011;16347;53.232;6.556;2024-01-06T06:59:53;14.68;;;9.38;;
29358;SDS011;16347;53.232;6.556;2024-01-06T07:02:21;15.93;;;9.50;;
29358;SDS011;16347;53.232;6.556;2024-01-06T07:04:49;14.75;;;9.52;;
29358;SDS011;16347;53.232;6.556;2024-01-06T07:07:17;12.95;;;9.15;;
29358;SDS011;16347;53.232;6.556;2024-01-06T07:09:45;20.08;;;10.38;;
29358;SDS011;16347;53.232;6.556;2024-01-06T07:12:13;15.20;;;10.10;;
29358;SDS011;16347;53.232;6.556;2024-01-06T07:14:40;16.13;;;9.75;;
29358;SDS011;16347;53.232;6.556;2024-01-06T07:17:10;17.75;;;10.70;;
29358;SDS011;16347;53.232;6.556;2024-01-06T07:19:37;17.30;;;10.38;;
29358;SDS011;16347;53.232;6.556;2024-01-06T07:22:05;17.17;;;9.85;;
29358;SDS011;16347;53.232;6.556;2024-01-06T07:24:33;17.63;;;10.32;;
29358;SDS011;16347;53.232;6.556;2024-01-06T07:27:03;18.63;;;10.77;;
29358;SDS011;16347;53.232;6.556;2024-01-06T07:29:30;17.65;;;10.52;;
29358;SDS011;16347;53.232;6.556;2024-01-06T07:31:58;21.50;;;11.45;;
29358;SDS011;16347;53.232;6.556;2024-01-06T07:34:27;17.85;;;11.35;;
29358;SDS011;16347;53.232;6.556;2024-01-06T07:36:55;20.85;;;10.77;;
29358;SDS011;16347;53.232;6.556;2024-01-06T07:39:24;17.70;;;10.23;;
29358;SDS011;16347;53.232;6.556;2024-01-06T07:41:51;17.63;;;9.65;;
29358;SDS011;16347;53.232;6.556;2024-01-06T07:44:20;17.75;;;11.07;;
29358;SDS011;16347;53.232;6.556;2024-01-06T07:46:51;19.20;;;10.35;;
29358;SDS011;16347;53.232;6.556;2024-01-06T07:49:19;18.38;;;11.23;;
29358;SDS011;16347;53.232;6.556;2024-01-06T07:51:49;15.43;;;10.75;;
29358;SDS011;16347;53.232;6.556;2024-01-06T07:54:17;17.42;;;11.93;;
29358;SDS011;16347;53.232;6.556;2024-01-06T07:56:44;23.02;;;12.45;;
29358;SDS011;16347;53.232;6.556;2024-01-06T07:59:12;22.15;;;12.25;;
29358;SDS011;16347;53.232;6.556;2024-01-06T08:01:41;19.33;;;12.02;;
29358;SDS011;16347;53.232;6.556;2024-01-06T08:04:10;20.05;;;12.20;;
29358;SDS011;16347;53.232;6.556;2024-01-06T08:06:38;22.08;;;11.52;;
29358;SDS011;16347;53.232;6.556;2024-01-06T08:09:07;16.75;;;11.40;;
29358;SDS011;16347;53.232;6.556;2024-01-06T08:11:36;19.65;;;11.57;;
29358;SDS011;16347;53.232;6.556;2024-01-06T08:14:03;17.63;;;11.40;;
29358;SDS011;16347;53.232;6.556;2024-01-06T08:16:31;19.17;;;11.63;;
29358;SDS011;16347;53.232;6.556;2024-01-06T08:18:59;17.30;;;10.88;;
29358;SDS011;16347;53.232;6.556;2024-01-06T08:21:27;16.88;;;10.15;;
29358;SDS011;16347;53.232;6.556;2024-01-06T08:23:55;18.33;;;10.40;;
29358;SDS011;16347;53.232;6.556;2024-01-06T08:26:24;20.98;;;11.70;;
29358;SDS011;16347;53.232;6.556;2024-01-06T08:28:52;16.27;;;10.73;;
29358;SDS011;16347;53.232;6.556;2024-01-06T08:31:20;20.02;;;11.57;;
29358;SDS011;16347;53.232;6.556;2024-01-06T08:33:49;21.17;;;11.63;;
29358;SDS011;16347;53.232;6.556;2024-01-06T08:36:17;22.45;;;12.05;;
29358;SDS011;16347;53.232;6.556;2024-01-06T08:38:45;20.55;;;12.52;;
29358;SDS011;16347;53.232;6.556;2024-01-06T08:41:13;18.80;;;11.25;;
29358;SDS011;16347;53.232;6.556;2024-01-06T08:43:42;18.35;;;10.77;;
29358;SDS011;16347;53.232;6.556;2024-01-06T08:46:10;19.23;;;10.40;;
29358;SDS011;16347;53.232;6.556;2024-01-06T08:48:38;18.08;;;10.73;;
29358;SDS011;16347;53.232;6.556;2024-01-06T08:51:06;19.48;;;11.85;;
29358;SDS011;16347;53.232;6.556;2024-01-06T08:53:34;19.33;;;11.52;;
29358;SDS011;16347;53.232;6.556;2024-01-06T08:56:01;23.63;;;12.13;;
29358;SDS011;16347;53.232;6.556;2024-01-06T08:58:29;21.17;;;11.73;;
29358;SDS011;16347;53.232;6.556;2024-01-06T09:00:59;18.20;;;10.52;;
29358;SDS011;16347;53.232;6.556;2024-01-06T09:03:27;21.45;;;11.80;;
29358;SDS011;16347;53.232;6.556;2024-01-06T09:05:55;26.92;;;12.00;;
29358;SDS011;16347;53.232;6.556;2024-01-06T09:08:23;19.20;;;11.50;;
29358;SDS011;16347;53.232;6.556;2024-01-06T09:10:51;16.95;;;10.68;;
29358;SDS011;16347;53.232;6.556;2024-01-06T09:13:23;17.27;;;10.73;;
29358;SDS011;16347;53.232;6.556;2024-01-06T09:15:51;18.65;;;10.95;;
29358;SDS011;16347;53.232;6.556;2024-01-06T09:18:21;20.73;;;11.05;;
29358;SDS011;16347;53.232;6.556;2024-01-06T09:20:49;19.23;;;11.23;;
29358;SDS011;16347;53.232;6.556;2024-01-06T09:23:17;20.67;;;11.00;;
29358;SDS011;16347;53.232;6.556;2024-01-06T09:25:48;19.38;;;11.18;;
29358;SDS011;16347;53.232;6.556;2024-01-06T09:28:18;21.67;;;11.98;;
29358;SDS011;16347;53.232;6.556;2024-01-06T09:30:47;18.05;;;10.57;;
29358;SDS011;16347;53.232;6.556;2024-01-06T09:33:15;20.65;;;11.50;;
29358;SDS011;16347;53.232;6.556;2024-01-06T09:35:45;21.67;;;11.52;;
29358;SDS011;16347;53.232;6.556;2024-01-06T09:38:13;19.25;;;11.55;;
29358;SDS011;16347;53.232;6.556;2024-01-06T09:40:42;19.50;;;11.77;;
29358;SDS011;16347;53.232;6.556;2024-01-06T09:43:12;17.48;;;9.68;;
29358;SDS011;16347;53.232;6.556;2024-01-06T09:45:40;21.48;;;11.40;;
29358;SDS011;16347;53.232;6.556;2024-01-06T09:48:10;17.98;;;10.52;;
29358;SDS011;16347;53.232;6.556;2024-01-06T09:50:40;18.30;;;11.10;;
29358;SDS011;16347;53.232;6.556;2024-01-06T09:53:10;15.63;;;10.18;;
29358;SDS011;16347;53.232;6.556;2024-01-06T09:55:39;19.20;;;10.73;;
29358;SDS011;16347;53.232;6.556;2024-01-06T09:58:07;19.65;;;11.00;;
29358;SDS011;16347;53.232;6.556;2024-01-06T10:00:37;19.88;;;11.10;;
29358;SDS011;16347;53.232;6.556;2024-01-06T10:03:05;19.95;;;11.48;;
29358;SDS011;16347;53.232;6.556;2024-01-06T10:05:34;21.90;;;10.85;;
29358;SDS011;16347;53.232;6.556;2024-01-06T10:08:02;20.70;;;11.70;;
29358;SDS011;16347;53.232;6.556;2024-01-06T10:10:33;22.70;;;11.68;;
29358;SDS011;16347;53.232;6.556;2024-01-06T10:13:01;23.23;;;11.85;;
29358;SDS011;16347;53.232;6.556;2024-01-06T10:15:29;18.80;;;11.00;;
29358;SDS011;16347;53.232;6.556;2024-01-06T10:17:57;20.73;;;10.77;;
29358;SDS011;16347;53.232;6.556;2024-01-06T10:20:25;19.38;;;11.60;;
29358;SDS011;16347;53.232;6.556;2024-01-06T10:22:54;20.23;;;11.95;;
29358;SDS011;16347;53.232;6.556;2024-01-06T10:25:23;19.40;;;11.80;;
29358;SDS011;16347;53.232;6.556;2024-01-06T10:27:52;20.52;;;12.35;;
29358;SDS011;16347;53.232;6.556;2024-01-06T10:30:21;19.08;;;11.23;;
29358;SDS011;16347;53.232;6.556;2024-01-06T10:32:49;18.00;;;11.48;;
29358;SDS011;16347;53.232;6.556;2024-01-06T10:35:17;20.75;;;12.30;;
29358;SDS011;16347;53.232;6.556;2024-01-06T10:37:45;19.35;;;10.88;;
29358;SDS011;16347;53.232;6.556;2024-01-06T10:40:15;17.60;;;10.73;;
29358;SDS011;16347;53.232;6.556;2024-01-06T10:42:44;19.27;;;11.10;;
29358;SDS011;16347;53.232;6.556;2024-01-06T10:45:14;17.92;;;10.70;;
29358;SDS011;16347;53.232;6.556;2024-01-06T10:47:42;19.42;;;11.55;;
29358;SDS011;16347;53.232;6.556;2024-01-06T10:50:11;17.67;;;10.52;;
29358;SDS011;16347;53.232;6.556;2024-01-06T10:52:40;17.17;;;9.57;;
29358;SDS011;16347;53.232;6.556;2024-01-06T10:55:09;20.05;;;10.40;;
29358;SDS011;16347;53.232;6.556;2024-01-06T10:57:37;16.05;;;10.38;;
29358;SDS011;16347;53.232;6.556;2024-01-06T11:00:07;18.02;;;10.10;;
29358;SDS011;16347;53.232;6.556;2024-01-06T11:02:38;18.02;;;9.98;;
29358;SDS011;16347;53.232;6.556;2024-01-06T11:05:08;17.85;;;9.85;;
29358;SDS011;16347;53.232;6.556;2024-01-06T11:07:38;21.60;;;9.95;;
29358;SDS011;16347;53.232;6.556;2024-01-06T11:10:09;16.77;;;8.98;;
29358;SDS011;16347;53.232;6.556;2024-01-06T11:12:41;16.70;;;9.63;;
29358;SDS011;16347;53.232;6.556;2024-01-06T11:15:10;16.95;;;9.20;;
29358;SDS011;16347;53.232;6.556;2024-01-06T11:17:49;15.27;;;8.57;;
29358;SDS011;16347;53.232;6.556;2024-01-06T11:20:20;14.00;;;8.82;;
29358;SDS011;16347;53.232;6.556;2024-01-06T11:22:49;14.93;;;9.02;;
29358;SDS011;16347;53.232;6.556;2024-01-06T11:25:18;21.00;;;9.75;;
29358;SDS011;16347;53.232;6.556;2024-01-06T11:27:47;14.55;;;8.57;;
29358;SDS011;16347;53.232;6.556;2024-01-06T11:30:19;16.35;;;9.50;;
29358;SDS011;16347;53.232;6.556;2024-01-06T11:32:50;14.77;;;8.32;;
29358;SDS011;16347;53.232;6.556;2024-01-06T11:35:20;14.15;;;8.27;;
29358;SDS011;16347;53.232;6.556;2024-01-06T11:37:51;12.85;;;7.28;;
29358;SDS011;16347;53.232;6.556;2024-01-06T11:40:22;11.55;;;7.60;;
29358;SDS011;16347;53.232;6.556;2024-01-06T11:42:58;12.75;;;7.28;;
29358;SDS011;16347;53.232;6.556;2024-01-06T11:45:31;13.77;;;7.28;;
29358;SDS011;16347;53.232;6.556;2024-01-06T11:48:02;13.27;;;6.68;;
29358;SDS011;16347;53.232;6.556;2024-01-06T11:50:31;14.00;;;7.15;;
29358;SDS011;16347;53.232;6.556;2024-01-06T11:53:01;12.88;;;7.78;;
29358;SDS011;16347;53.232;6.556;2024-01-06T11:55:29;12.82;;;7.40;;
29358;SDS011;16347;53.232;6.556;2024-01-06T11:57:58;9.68;;;6.53;;
29358;SDS011;16347;53.232;6.556;2024-01-06T12:00:29;14.70;;;7.82;;
29358;SDS011;16347;53.232;6.556;2024-01-06T12:02:57;13.45;;;7.82;;
29358;SDS011;16347;53.232;6.556;2024-01-06T12:05:28;15.52;;;7.50;;
29358;SDS011;16347;53.232;6.556;2024-01-06T12:07:58;15.43;;;7.43;;
29358;SDS011;16347;53.232;6.556;2024-01-06T12:10:27;14.63;;;7.28;;
29358;SDS011;16347;53.232;6.556;2024-01-06T12:12:57;14.50;;;7.30;;
29358;SDS011;16347;53.232;6.556;2024-01-06T12:15:26;14.20;;;7.63;;
29358;SDS011;16347;53.232;6.556;2024-01-06T12:17:55;14.35;;;7.18;;
29358;SDS011;16347;53.232;6.556;2024-01-06T12:20:23;10.35;;;6.40;;
29358;SDS011;16347;53.232;6.556;2024-01-06T12:22:53;10.32;;;6.47;;
29358;SDS011;16347;53.232;6.556;2024-01-06T12:25:21;13.25;;;7.28;;
29358;SDS011;16347;53.232;6.556;2024-01-06T12:27:49;13.38;;;7.20;;
29358;SDS011;16347;53.232;6.556;2024-01-06T12:30:19;14.75;;;6.75;;
29358;SDS011;16347;53.232;6.556;2024-01-06T12:32:48;13.70;;;7.22;;
29358;SDS011;16347;53.232;6.556;2024-01-06T12:35:19;11.93;;;6.47;;
29358;SDS011;16347;53.232;6.556;2024-01-06T12:37:48;11.95;;;6.72;;
29358;SDS011;16347;53.232;6.556;2024-01-06T12:40:17;12.00;;;6.60;;
29358;SDS011;16347;53.232;6.556;2024-01-06T12:42:48;13.50;;;7.05;;
29358;SDS011;16347;53.232;6.556;2024-01-06T12:45:15;13.07;;;7.38;;
29358;SDS011;16347;53.232;6.556;2024-01-06T12:47:43;13.43;;;7.18;;
29358;SDS011;16347;53.232;6.556;2024-01-06T12:50:11;10.98;;;7.05;;
29358;SDS011;16347;53.232;6.556;2024-01-06T12:52:41;11.93;;;6.60;;
29358;SDS011;16347;53.232;6.556;2024-01-06T12:55:08;11.85;;;7.28;;
29358;SDS011;16347;53.232;6.556;2024-01-06T12:57:38;14.10;;;7.75;;
29358;SDS011;16347;53.232;6.556;2024-01-06T13:00:06;11.15;;;6.78;;
29358;SDS011;16347;53.232;6.556;2024-01-06T13:02:37;9.73;;;6.30;;
29358;SDS011;16347;53.232;6.556;2024-01-06T13:05:05;11.23;;;7.10;;
29358;SDS011;16347;53.232;6.556;2024-01-06T13:07:35;13.50;;;7.57;;
29358;SDS011;16347;53.232;6.556;2024-01-06T13:10:03;12.48;;;7.50;;
29358;SDS011;16347;53.232;6.556;2024-01-06T13:12:32;14.07;;;7.57;;
29358;SDS011;16347;53.232;6.556;2024-01-06T13:15:02;13.32;;;7.07;;
29358;SDS011;16347;53.232;6.556;2024-01-06T13:17:30;12.00;;;7.40;;
29358;SDS011;16347;53.232;6.556;2024-01-06T13:19:58;15.50;;;7.40;;
29358;SDS011;16347;53.232;6.556;2024-01-06T13:22:26;12.85;;;6.85;;
29358;SDS011;16347;53.232;6.556;2024-01-06T13:24:55;13.82;;;7.40;;
29358;SDS011;16347;53.232;6.556;2024-01-06T13:27:22;13.27;;;7.57;;
29358;SDS011;16347;53.232;6.556;2024-01-06T13:29:50;12.13;;;7.03;;
29358;SDS011;16347;53.232;6.556;2024-01-06T13:32:20;22.42;;;9.65;;
29358;SDS011;16347;53.232;6.556;2024-01-06T13:34:49;21.90;;;10.45;;
29358;SDS011;16347;53.232;6.556;2024-01-06T13:37:20;18.17;;;9.30;;
29358;SDS011;16347;53.232;6.556;2024-01-06T13:39:49;18.85;;;9.55;;
29358;SDS011;16347;53.232;6.556;2024-01-06T13:42:17;18.95;;;9.77;;
29358;SDS011;16347;53.232;6.556;2024-01-06T13:44:47;15.65;;;8.88;;
29358;SDS011;16347;53.232;6.556;2024-01-06T13:47:15;20.20;;;9.75;;
29358;SDS011;16347;53.232;6.556;2024-01-06T13:49:44;21.13;;;10.30;;
29358;SDS011;16347;53.232;6.556;2024-01-06T13:52:13;13.25;;;7.63;;
29358;SDS011;16347;53.232;6.556;2024-01-06T13:54:41;17.95;;;8.55;;
29358;SDS011;16347;53.232;6.556;2024-01-06T13:57:09;17.60;;;9.70;;
29358;SDS011;16347;53.232;6.556;2024-01-06T13:59:36;14.05;;;8.27;;
29358;SDS011;16347;53.232;6.556;2024-01-06T14:02:08;14.90;;;8.05;;
29358;SDS011;16347;53.232;6.556;2024-01-06T14:04:37;15.73;;;8.20;;
29358;SDS011;16347;53.232;6.556;2024-01-06T14:07:06;13.15;;;8.05;;
29358;SDS011;16347;53.232;6.556;2024-01-06T14:09:36;15.82;;;8.30;;
29358;SDS011;16347;53.232;6.556;2024-01-06T14:12:04;11.93;;;7.25;;
29358;SDS011;16347;53.232;6.556;2024-01-06T14:14:32;13.65;;;7.88;;
29358;SDS011;16347;53.232;6.556;2024-01-06T14:17:00;14.57;;;7.97;;
29358;SDS011;16347;53.232;6.556;2024-01-06T14:19:28;11.73;;;7.43;;
29358;SDS011;16347;53.232;6.556;2024-01-06T14:21:56;16.15;;;8.13;;
29358;SDS011;16347;53.232;6.556;2024-01-06T14:24:26;13.38;;;8.15;;
29358;SDS011;16347;53.232;6.556;2024-01-06T14:26:54;13.77;;;7.03;;
29358;SDS011;16347;53.232;6.556;2024-01-06T14:29:22;14.90;;;8.20;;
29358;SDS011;16347;53.232;6.556;2024-01-06T14:31:50;16.23;;;8.45;;
29358;SDS011;16347;53.232;6.556;2024-01-06T14:34:18;12.18;;;7.35;;
29358;SDS011;16347;53.232;6.556;2024-01-06T14:36:46;12.98;;;6.95;;
29358;SDS011;16347;53.232;6.556;2024-01-06T14:39:15;15.15;;;8.30;;